Oak Lawn, IL (60453)

12:23 CDT le 25 septembre 2016 (GMT -0500)
Oak Lawn - 48th Court | | Change Station

Alt. 623 ft 41.72 °N, 87.74 °W | Updated 35 seconds ago

Mostly Cloudy
Nuageux
80.8 ° F
Paraît 84 ° F
N
1.7
Vent Variable Vent de Sud
Gusts 5.8 mph

Aujourd'hui
Haut(e) -- | Bas -- ° F
--% Risque de précip.
Hier
Haut(e) -- | Bas -- ° F
Precip. -- pouce
Pression 30.01 pouce
Visibilité 10.0 Miles terrestres
Nuages Peu 9000 ft
Nuageux 24000 ft
indice de chaleur 84 ° F
Point de rosée 68 ° F
Humidité 65%
Précipitations 0.00 pouce
Profondeur de la couche neigeuse Non disponible.
6:42 AM 6:42 PM
Lune descendante, 26% visible
METAR KMDW 251653Z 14009KT 10SM FEW090 BKN240 27/17 A3004 RMK AO2 SLP162 T02670172
Pression 30.01 pouce
Visibilité 10.0 Miles terrestres
Nuages Peu 9000 ft
Nuageux 24000 ft
indice de chaleur 84 ° F
Point de rosée 68 ° F
Humidité 65%
Précipitations 0.00 pouce
Profondeur de la couche neigeuse Non disponible.
6:42 AM 6:42 PM
Lune descendante, 26% visible
METAR KMDW 251653Z 14009KT 10SM FEW090 BKN240 27/17 A3004 RMK AO2 SLP162 T02670172

10-Day Weather Forecast

Almanac

Astronomie

Sep. 25, 2016 Lever Coucher
Temps réel
Crépuscule civil
Crépuscule nautique
Crépuscule astronomique
Lune
Durée de lumière visible
Longueur du jour
Tomorrow will be .
, % of the Moon is Illuminated

Extrêmes aujourd'hui

State Highs State Lows

Community

WunderPhotos

Upload Photos

1,941,670 Photos téléchargées !

WunderBlog® & News

Nearby

Qualité de l'air

  Qualité de l'air Indice de la qualité de l'air Polluant
Not available.

Épaisseur de neige

Station Depth Altitude

Activité sismique

Ville Distance Mag. Time & Date
Minimum magnitude displayed is 2.5.

Températures des eaux côtières

Lieu Température

Stations

Stations météo à proximité

Emplacement de la station Température Refroidissement éolien Point de rosée Humidité Vent Precip. Alt. Mise à jour Type
                   

Watches & Warnings

There are currently no watches in effect.